Mesures en temps réel :

Wind Speed:
CloudBase:
Pressure:

Données extraites du METAR (ESSEY) :


Ephéméride:

Dernière MàJ: 05/02/2023, 04:34:02.
 (Attention : horaires donnés en heure LOCALE, déjà corrigée hiver/été. Pour UTC, retrancher 1H).
Heure du lever aéronautique (-6°):07:15:45
Heure du lever standard:07:50:39


Heure du coucher standard:17:27:19
Heure du coucher aéronautique (-6°):18:02:14


 source: http://vo.imcce.fr/webservices/miriade/

Mesures récentes

5 dernières minutes : Vitesse moyenne : NAN m/s | Rafales : m/s | Direction moyenne : 270 °




METAR (LFSN - Nancy ESSEY)


LFSN 051630Z AUTO 32011KT 9999 -DZ FEW018 SCT030 BKN037 05/03 Q1036
Cloudbase :1800ft

Prévision WINDY

Prévision WINDGURU

Images satellite sat24.com

Images TEMSI Aéroweb (aviation.meteo.fr)

Dernière mise à jour: 16:38:02